Map

Track Data

SID SEASON NUMBER BASIN SUBBASIN NAME ISO_TIME NATURE LAT LON WMO_WIND WMO_PRES WMO_AGENCY TRACK_TYPE DIST2LAND LANDFALL IFLAG USA_AGENCY USA_ATCF_ID USA_LAT USA_LON USA_RECORD USA_STATUS USA_WIND USA_PRES USA_SSHS USA_R34_NE USA_R34_SE USA_R34_SW USA_R34_NW USA_R50_NE USA_R50_SE USA_R50_SW USA_R50_NW USA_R64_NE USA_R64_SE USA_R64_SW USA_R64_NW USA_POCI USA_ROCI USA_RMW USA_EYE TOKYO_LAT TOKYO_LON TOKYO_GRADE TOKYO_WIND TOKYO_PRES TOKYO_R50_DIR TOKYO_R50_LONG TOKYO_R50_SHORT TOKYO_R30_DIR TOKYO_R30_LONG TOKYO_R30_SHORT TOKYO_LAND CMA_LAT CMA_LON CMA_CAT CMA_WIND CMA_PRES HKO_LAT HKO_LON HKO_CAT HKO_WIND HKO_PRES NEWDELHI_LAT NEWDELHI_LON NEWDELHI_GRADE NEWDELHI_WIND NEWDELHI_PRES NEWDELHI_CI NEWDELHI_DP NEWDELHI_POCI REUNION_LAT REUNION_LON REUNION_TYPE REUNION_WIND REUNION_PRES REUNION_TNUM REUNION_CI REUNION_RMW REUNION_R34_NE REUNION_R34_SE REUNION_R34_SW REUNION_R34_NW REUNION_R50_NE REUNION_R50_SE REUNION_R50_SW REUNION_R50_NW REUNION_R64_NE REUNION_R64_SE REUNION_R64_SW REUNION_R64_NW BOM_LAT BOM_LON BOM_TYPE BOM_WIND BOM_PRES BOM_TNUM BOM_CI BOM_RMW BOM_R34_NE BOM_R34_SE BOM_R34_SW BOM_R34_NW BOM_R50_NE BOM_R50_SE BOM_R50_SW BOM_R50_NW BOM_R64_NE BOM_R64_SE BOM_R64_SW BOM_R64_NW BOM_ROCI BOM_POCI BOM_EYE BOM_POS_METHOD BOM_PRES_METHOD NADI_LAT NADI_LON NADI_CAT NADI_WIND NADI_PRES WELLINGTON_LAT WELLINGTON_LON WELLINGTON_WIND WELLINGTON_PRES DS824_LAT DS824_LON DS824_STAGE DS824_WIND DS824_PRES TD9636_LAT TD9636_LON TD9636_STAGE TD9636_WIND TD9636_PRES TD9635_LAT TD9635_LON TD9635_WIND TD9635_PRES TD9635_ROCI NEUMANN_LAT NEUMANN_LON NEUMANN_CLASS NEUMANN_WIND NEUMANN_PRES MLC_LAT MLC_LON MLC_CLASS MLC_WIND MLC_PRES USA_GUST BOM_GUST BOM_GUST_PER REUNION_GUST REUNION_GUST_PER USA_SEAHGT USA_SEARAD_NE USA_SEARAD_SE USA_SEARAD_SW USA_SEARAD_NW STORM_SPEED STORM_DIR
1900032S20050 1900 1 SI MM NOT_NAMED 1900-02-01 06:00:00 NR -19.9000 50.2000 reunion spur-split 146 146 _____O________ -1 -19.9000 50.2000 99 9.90000 2 131
1900032S20050 1900 1 SI MM NOT_NAMED 1900-02-01 09:00:00 NR -19.9632 50.2744 spur-split 156 156 _____P________ -1 -19.9632 50.2744 99 2 133
1900032S20050 1900 1 SI MM NOT_NAMED 1900-02-01 12:00:00 NR -20.0310 50.3524 spur-split 167 167 _____P________ -1 -20.0310 50.3524 99 2 134
1900032S20050 1900 1 SI MM NOT_NAMED 1900-02-01 15:00:00 NR -20.1083 50.4377 spur-split 167 167 _____P________ -1 -20.1083 50.4377 99 2 134
1900032S20050 1900 1 SI MM NOT_NAMED 1900-02-01 18:00:00 NR -20.1996 50.5338 spur-split 178 178 _____P________ -1 -20.1996 50.5338 99 3 136
1900032S20050 1900 1 SI MM NOT_NAMED 1900-02-01 21:00:00 NR -20.3098 50.6444 spur-split 190 190 _____P________ -1 -20.3098 50.6444 99 3 137
1900032S20050 1900 1 SI MM NOT_NAMED 1900-02-02 00:00:00 NR -20.4435 50.7731 spur-split 213 213 _____P________ -1 -20.4435 50.7731 99 4 138
1900032S20050 1900 1 SI MM NOT_NAMED 1900-02-02 03:00:00 NR -20.6053 50.9237 spur-split 229 229 _____P________ -1 -20.6053 50.9237 99 5 139
1900032S20050 1900 1 SI MM NOT_NAMED 1900-02-02 06:00:00 NR -20.8000 51.1000 reunion spur-split 255 255 _____O________ -1 -20.8000 51.1000 99 9.90000 6 140
1900032S20050 1900 1 SI MM NOT_NAMED 1900-02-02 09:00:00 NR -21.0304 51.3046 spur-split 283 283 _____P________ -1 -21.0304 51.3046 99 6 140
1900032S20050 1900 1 SI MM NOT_NAMED 1900-02-02 12:00:00 NR -21.2924 51.5356 spur-split 316 316 _____P________ -1 -21.2924 51.5356 99 7 141
1900032S20050 1900 1 SI MM NOT_NAMED 1900-02-02 15:00:00 NR -21.5801 51.7900 spur-split 356 340 _____P________ -1 -21.5801 51.7900 99 8 141
1900032S20050 1900 1 SI MM NOT_NAMED 1900-02-02 18:00:00 NR -21.8877 52.0645 spur-split 332 319 _____P________ -1 -21.8877 52.0645 99 8 140
1900032S20050 1900 1 SI MM NOT_NAMED 1900-02-02 21:00:00 NR -22.2093 52.3560 spur-split 314 304 _____P________ -1 -22.2093 52.3560 99 9 140
1900032S20050 1900 1 SI MM NOT_NAMED 1900-02-03 00:00:00 NR -22.5391 52.6613 spur-split 299 292 _____P________ -1 -22.5391 52.6613 99 9 139
1900032S20050 1900 1 SI MM NOT_NAMED 1900-02-03 03:00:00 NR -22.8712 52.9771 spur-split 296 295 _____P________ -1 -22.8712 52.9771 99 9 138
1900032S20050 1900 1 SI MM NOT_NAMED 1900-02-03 06:00:00 NR -23.2000 53.3000 reunion spur-split 295 295 _____O________ -1 -23.2000 53.3000 99 9.90000 9 138
1900032S20050 1900 1 SI MM NOT_NAMED 1900-02-03 09:00:00 NR -23.5073 53.6071 spur-split 301 301 _____P________ -1 -23.5073 53.6071 99 8 137
1900032S20050 1900 1 SI MM NOT_NAMED 1900-02-03 12:00:00 NR -23.8155 53.9238 spur-split 314 309 _____P________ -1 -23.8155 53.9238 99 9 136
1900032S20050 1900 1 SI MM NOT_NAMED 1900-02-03 15:00:00 NR -24.1233 54.2495 spur-split 332 329 _____P________ -1 -24.1233 54.2495 99 9 136
1900032S20050 1900 1 SI MM NOT_NAMED 1900-02-03 18:00:00 NR -24.4289 54.5839 spur-split 350 350 _____P________ -1 -24.4289 54.5839 99 9 135
1900032S20050 1900 1 SI MM NOT_NAMED 1900-02-03 21:00:00 NR -24.7309 54.9266 spur-split 375 375 _____P________ -1 -24.7309 54.9266 99 9 134
1900032S20050 1900 1 SI MM NOT_NAMED 1900-02-04 00:00:00 NR -25.0278 55.2772 spur-split 403 403 _____P________ -1 -25.0278 55.2772 99 9 132
1900032S20050 1900 1 SI MM NOT_NAMED 1900-02-04 03:00:00 NR -25.3180 55.6351 spur-split 435 435 _____P________ -1 -25.3180 55.6351 99 9 131
1900032S20050 1900 1 SI MM NOT_NAMED 1900-02-04 06:00:00 NR -25.6000 56.0000 reunion spur-split 471 471 _____O________ -1 -25.6000 56.0000 99 9.90000 9 130
1900032S20050 1900 1 SI MM NOT_NAMED 1900-02-04 09:00:00 NR -25.8761 56.3752 spur-split 509 509 _____P________ -1 -25.8761 56.3752 99 9 129
1900032S20050 1900 1 SI MM NOT_NAMED 1900-02-04 12:00:00 NR -26.1448 56.7593 spur-split 539 539 _____P________ -1 -26.1448 56.7593 99 9 127
1900032S20050 1900 1 SI MM NOT_NAMED 1900-02-04 15:00:00 NR -26.4061 57.1497 spur-split 579 579 _____P________ -1 -26.4061 57.1497 99 9 126
1900032S20050 1900 1 SI MM NOT_NAMED 1900-02-04 18:00:00 NR -26.6599 57.5436 spur-split 622 622 _____P________ -1 -26.6599 57.5436 99 9 125
1900032S20050 1900 1 SI MM NOT_NAMED 1900-02-04 21:00:00 NR -26.9061 57.9383 spur-split 657 657 _____P________ -1 -26.9061 57.9383 99 9 125
1900032S20050 1900 1 SI MM NOT_NAMED 1900-02-05 00:00:00 NR -27.1448 58.3311 spur-split 693 693 _____P________ -1 -27.1448 58.3311 99 8 124
1900032S20050 1900 1 SI MM NOT_NAMED 1900-02-05 03:00:00 NR -27.3761 58.7193 spur-split 740 740 _____P________ -1 -27.3761 58.7193 99 8 124
1900032S20050 1900 1 SI MM NOT_NAMED 1900-02-05 06:00:00 NR -27.6000 59.1000 reunion spur-split 777 777 _____O________ -1 -27.6000 59.1000 99 9.90000 8 123
1900032S20050 1900 1 SI MM NOT_NAMED 1900-02-05 09:00:00 NR -27.8167 59.4711 spur-split 816 816 _____P________ -1 -27.8167 59.4711 99 8 123
1900032S20050 1900 1 SI MM NOT_NAMED 1900-02-05 12:00:00 NR -28.0270 59.8334 spur-split 850 850 _____P________ -1 -28.0270 59.8334 99 8 123
1900032S20050 1900 1 SI MM NOT_NAMED 1900-02-05 15:00:00 NR -28.2317 60.1882 spur-split 889 889 _____P________ -1 -28.2317 60.1882 99 7 123
1900032S20050 1900 1 SI MM NOT_NAMED 1900-02-05 18:00:00 NR -28.4317 60.5370 spur-split 923 923 _____P________ -1 -28.4317 60.5370 99 7 123
1900032S20050 1900 1 SI MM NOT_NAMED 1900-02-05 21:00:00 NR -28.6277 60.8811 spur-split 961 961 _____P________ -1 -28.6277 60.8811 99 7 123
1900032S20050 1900 1 SI MM NOT_NAMED 1900-02-06 00:00:00 NR -28.8206 61.2220 spur-split 992 992 _____P________ -1 -28.8206 61.2220 99 7 123
1900032S20050 1900 1 SI MM NOT_NAMED 1900-02-06 03:00:00 NR -29.0111 61.5611 spur-split 1027 1027 _____P________ -1 -29.0111 61.5611 99 7 123
1900032S20050 1900 1 SI MM NOT_NAMED 1900-02-06 06:00:00 NR -29.2000 61.9000 reunion spur-split 1060 _____O________ -1 -29.2000 61.9000 99 9.90000 7 122

About IBTrACS Database

This database is a web-friendly format of International Best Track Archive for Climate Stewardship (IBTrACS), a global best track data archive curated by NOAA dating back to 1842.

Updated: 2021-11-26